sensor_id;sensor_type;location;lat;lon;timestamp;temperature;humidity
63960;DHT22;50136;51.374;0.096;2023-06-14T00:06:25;16.10;81.90
63960;DHT22;50136;51.374;0.096;2023-06-14T00:16:27;16.10;80.70
63960;DHT22;50136;51.374;0.096;2023-06-14T00:26:31;16.00;80.00
63960;DHT22;50136;51.374;0.096;2023-06-14T00:36:33;16.00;80.80
63960;DHT22;50136;51.374;0.096;2023-06-14T00:46:36;15.80;81.30
63960;DHT22;50136;51.374;0.096;2023-06-14T00:56:39;15.60;85.00
63960;DHT22;50136;51.374;0.096;2023-06-14T01:06:51;15.50;87.00
63960;DHT22;50136;51.374;0.096;2023-06-14T01:16:58;15.40;87.20
63960;DHT22;50136;51.374;0.096;2023-06-14T01:27:03;15.10;87.20
63960;DHT22;50136;51.374;0.096;2023-06-14T01:37:05;15.00;88.20
63960;DHT22;50136;51.374;0.096;2023-06-14T01:47:09;14.70;89.10
63960;DHT22;50136;51.374;0.096;2023-06-14T01:57:11;14.50;90.30
63960;DHT22;50136;51.374;0.096;2023-06-14T02:07:15;14.50;91.00
63960;DHT22;50136;51.374;0.096;2023-06-14T02:17:17;14.10;93.90
63960;DHT22;50136;51.374;0.096;2023-06-14T02:27:20;13.80;95.40
63960;DHT22;50136;51.374;0.096;2023-06-14T02:37:22;13.70;96.40
63960;DHT22;50136;51.374;0.096;2023-06-14T02:47:26;13.60;97.80
63960;DHT22;50136;51.374;0.096;2023-06-14T02:57:28;13.60;99.40
63960;DHT22;50136;51.374;0.096;2023-06-14T03:07:31;13.40;99.90
63960;DHT22;50136;51.374;0.096;2023-06-14T03:17:33;13.40;99.90
63960;DHT22;50136;51.374;0.096;2023-06-14T03:27:37;13.30;99.90
63960;DHT22;50136;51.374;0.096;2023-06-14T03:37:39;13.30;99.90
63960;DHT22;50136;51.374;0.096;2023-06-14T03:47:42;13.20;99.90
63960;DHT22;50136;51.374;0.096;2023-06-14T03:57:44;13.30;99.90
63960;DHT22;50136;51.374;0.096;2023-06-14T04:07:48;13.20;99.90
63960;DHT22;50136;51.374;0.096;2023-06-14T04:17:50;13.30;99.90
63960;DHT22;50136;51.374;0.096;2023-06-14T04:27:53;13.30;99.90
63960;DHT22;50136;51.374;0.096;2023-06-14T04:37:55;13.30;99.90
63960;DHT22;50136;51.374;0.096;2023-06-14T04:47:59;13.40;99.90
63960;DHT22;50136;51.374;0.096;2023-06-14T04:58:02;13.30;99.90
63960;DHT22;50136;51.374;0.096;2023-06-14T05:08:05;13.60;99.90
63960;DHT22;50136;51.374;0.096;2023-06-14T05:18:07;13.70;99.90
63960;DHT22;50136;51.374;0.096;2023-06-14T05:28:11;13.80;99.90
63960;DHT22;50136;51.374;0.096;2023-06-14T05:38:13;14.00;99.90
63960;DHT22;50136;51.374;0.096;2023-06-14T05:48:16;14.20;99.90
63960;DHT22;50136;51.374;0.096;2023-06-14T05:58:18;14.40;99.90
63960;DHT22;50136;51.374;0.096;2023-06-14T06:08:22;14.60;99.90
63960;DHT22;50136;51.374;0.096;2023-06-14T06:18:24;14.80;99.90
63960;DHT22;50136;51.374;0.096;2023-06-14T06:28:27;15.00;99.90
63960;DHT22;50136;51.374;0.096;2023-06-14T06:38:29;15.30;99.90
63960;DHT22;50136;51.374;0.096;2023-06-14T06:48:34;15.60;99.90
63960;DHT22;50136;51.374;0.096;2023-06-14T06:58:36;15.90;99.90
63960;DHT22;50136;51.374;0.096;2023-06-14T07:08:39;16.00;99.90
63960;DHT22;50136;51.374;0.096;2023-06-14T07:18:41;16.40;99.90
63960;DHT22;50136;51.374;0.096;2023-06-14T07:28:45;16.70;99.90
63960;DHT22;50136;51.374;0.096;2023-06-14T07:38:47;17.20;99.90
63960;DHT22;50136;51.374;0.096;2023-06-14T07:48:51;17.60;99.90
63960;DHT22;50136;51.374;0.096;2023-06-14T07:58:53;19.30;99.90
63960;DHT22;50136;51.374;0.096;2023-06-14T08:08:57;22.50;99.10
63960;DHT22;50136;51.374;0.096;2023-06-14T08:18:59;25.00;95.40
63960;DHT22;50136;51.374;0.096;2023-06-14T08:29:02;26.60;93.60
63960;DHT22;50136;51.374;0.096;2023-06-14T08:39:04;28.30;91.90
63960;DHT22;50136;51.374;0.096;2023-06-14T08:49:08;29.00;90.20
63960;DHT22;50136;51.374;0.096;2023-06-14T08:59:13;28.90;86.90
63960;DHT22;50136;51.374;0.096;2023-06-14T09:09:16;29.40;86.70
63960;DHT22;50136;51.374;0.096;2023-06-14T09:19:21;30.40;84.40
63960;DHT22;50136;51.374;0.096;2023-06-14T09:29:25;30.80;83.10
63960;DHT22;50136;51.374;0.096;2023-06-14T09:39:27;31.70;81.40
63960;DHT22;50136;51.374;0.096;2023-06-14T09:49:30;32.00;82.30
63960;DHT22;50136;51.374;0.096;2023-06-14T09:59:35;32.60;80.20
63960;DHT22;50136;51.374;0.096;2023-06-14T10:09:39;32.30;80.40
63960;DHT22;50136;51.374;0.096;2023-06-14T10:19:44;30.80;79.20
63960;DHT22;50136;51.374;0.096;2023-06-14T10:30:09;30.40;79.90
63960;DHT22;50136;51.374;0.096;2023-06-14T10:40:30;31.70;77.60
63960;DHT22;50136;51.374;0.096;2023-06-14T10:50:33;31.40;76.40
63960;DHT22;50136;51.374;0.096;2023-06-14T11:00:36;28.90;80.60
63960;DHT22;50136;51.374;0.096;2023-06-14T11:10:41;30.00;80.10
63960;DHT22;50136;51.374;0.096;2023-06-14T11:20:46;30.20;78.90
63960;DHT22;50136;51.374;0.096;2023-06-14T11:30:59;30.00;78.40
63960;DHT22;50136;51.374;0.096;2023-06-14T11:41:02;29.90;78.20
63960;DHT22;50136;51.374;0.096;2023-06-14T11:51:05;29.30;81.60
63960;DHT22;50136;51.374;0.096;2023-06-14T12:01:07;29.20;80.70
63960;DHT22;50136;51.374;0.096;2023-06-14T12:11:13;28.90;83.00
63960;DHT22;50136;51.374;0.096;2023-06-14T12:21:15;28.90;83.30
63960;DHT22;50136;51.374;0.096;2023-06-14T12:31:18;28.40;83.90
63960;DHT22;50136;51.374;0.096;2023-06-14T12:41:21;28.50;82.50
63960;DHT22;50136;51.374;0.096;2023-06-14T12:51:24;28.30;83.40
63960;DHT22;50136;51.374;0.096;2023-06-14T13:01:26;28.40;80.30
63960;DHT22;50136;51.374;0.096;2023-06-14T13:11:30;28.40;79.80
63960;DHT22;50136;51.374;0.096;2023-06-14T13:21:32;28.20;79.40
63960;DHT22;50136;51.374;0.096;2023-06-14T13:31:35;28.50;75.60
63960;DHT22;50136;51.374;0.096;2023-06-14T13:41:37;28.40;74.20
63960;DHT22;50136;51.374;0.096;2023-06-14T13:51:41;28.00;73.40
63960;DHT22;50136;51.374;0.096;2023-06-14T14:01:43;28.10;73.70
63960;DHT22;50136;51.374;0.096;2023-06-14T14:11:46;28.20;74.60
63960;DHT22;50136;51.374;0.096;2023-06-14T14:21:48;28.50;74.30
63960;DHT22;50136;51.374;0.096;2023-06-14T14:31:52;28.20;75.10
63960;DHT22;50136;51.374;0.096;2023-06-14T14:41:54;27.70;73.30
63960;DHT22;50136;51.374;0.096;2023-06-14T14:51:57;28.00;71.20
63960;DHT22;50136;51.374;0.096;2023-06-14T15:02:15;28.20;71.20
63960;DHT22;50136;51.374;0.096;2023-06-14T15:12:19;28.20;72.10
63960;DHT22;50136;51.374;0.096;2023-06-14T15:22:21;28.10;72.60
63960;DHT22;50136;51.374;0.096;2023-06-14T15:32:24;27.30;71.90
63960;DHT22;50136;51.374;0.096;2023-06-14T15:42:26;27.40;72.50
63960;DHT22;50136;51.374;0.096;2023-06-14T15:52:30;27.20;73.60
63960;DHT22;50136;51.374;0.096;2023-06-14T16:02:32;27.00;73.50
63960;DHT22;50136;51.374;0.096;2023-06-14T16:12:35;27.10;72.50
63960;DHT22;50136;51.374;0.096;2023-06-14T16:22:37;26.70;70.80
63960;DHT22;50136;51.374;0.096;2023-06-14T16:32:41;26.50;73.60
63960;DHT22;50136;51.374;0.096;2023-06-14T16:42:44;26.50;70.70
63960;DHT22;50136;51.374;0.096;2023-06-14T16:52:47;26.30;71.80
63960;DHT22;50136;51.374;0.096;2023-06-14T17:02:49;26.00;71.70
63960;DHT22;50136;51.374;0.096;2023-06-14T17:12:52;26.00;72.50
63960;DHT22;50136;51.374;0.096;2023-06-14T17:22:55;26.00;72.60
63960;DHT22;50136;51.374;0.096;2023-06-14T17:32:58;25.80;73.90
63960;DHT22;50136;51.374;0.096;2023-06-14T17:43:00;25.40;75.20
63960;DHT22;50136;51.374;0.096;2023-06-14T17:53:03;25.10;74.40
63960;DHT22;50136;51.374;0.096;2023-06-14T18:03:05;25.00;72.40
63960;DHT22;50136;51.374;0.096;2023-06-14T18:13:09;24.70;69.50
63960;DHT22;50136;51.374;0.096;2023-06-14T18:23:26;24.30;72.60
63960;DHT22;50136;51.374;0.096;2023-06-14T18:55:01;23.30;80.10
63960;DHT22;50136;51.374;0.096;2023-06-14T19:05:07;22.90;80.60
63960;DHT22;50136;51.374;0.096;2023-06-14T19:15:32;22.60;82.30
63960;DHT22;50136;51.374;0.096;2023-06-14T19:25:34;22.20;87.10
63960;DHT22;50136;51.374;0.096;2023-06-14T19:35:46;21.80;89.60
63960;DHT22;50136;51.374;0.096;2023-06-14T19:45:48;21.30;90.90
63960;DHT22;50136;51.374;0.096;2023-06-14T19:55:51;21.30;90.40
63960;DHT22;50136;51.374;0.096;2023-06-14T20:05:53;20.80;91.10
63960;DHT22;50136;51.374;0.096;2023-06-14T20:15:57;20.60;91.20
63960;DHT22;50136;51.374;0.096;2023-06-14T20:25:59;20.40;91.70
63960;DHT22;50136;51.374;0.096;2023-06-14T20:36:03;20.20;92.30
63960;DHT22;50136;51.374;0.096;2023-06-14T20:46:05;20.00;92.70
63960;DHT22;50136;51.374;0.096;2023-06-14T20:56:08;19.70;93.60
63960;DHT22;50136;51.374;0.096;2023-06-14T21:06:10;19.40;94.30
63960;DHT22;50136;51.374;0.096;2023-06-14T21:16:14;19.30;94.70
63960;DHT22;50136;51.374;0.096;2023-06-14T21:26:16;19.00;95.40
63960;DHT22;50136;51.374;0.096;2023-06-14T21:36:19;18.70;96.10
63960;DHT22;50136;51.374;0.096;2023-06-14T21:46:21;18.60;96.40
63960;DHT22;50136;51.374;0.096;2023-06-14T21:56:25;18.50;97.00
63960;DHT22;50136;51.374;0.096;2023-06-14T22:06:27;18.40;97.40
63960;DHT22;50136;51.374;0.096;2023-06-14T22:16:30;18.20;98.10
63960;DHT22;50136;51.374;0.096;2023-06-14T22:26:41;18.00;99.00
63960;DHT22;50136;51.374;0.096;2023-06-14T22:36:44;17.70;99.70
63960;DHT22;50136;51.374;0.096;2023-06-14T22:46:47;17.60;99.90
63960;DHT22;50136;51.374;0.096;2023-06-14T22:56:50;17.30;99.90
63960;DHT22;50136;51.374;0.096;2023-06-14T23:06:52;17.10;99.90
63960;DHT22;50136;51.374;0.096;2023-06-14T23:16:55;16.90;99.90
63960;DHT22;50136;51.374;0.096;2023-06-14T23:26:57;16.80;99.90
63960;DHT22;50136;51.374;0.096;2023-06-14T23:37:01;16.50;99.90
63960;DHT22;50136;51.374;0.096;2023-06-14T23:47:03;16.20;99.90
63960;DHT22;50136;51.374;0.096;2023-06-14T23:57:07;15.90;99.90
